sensor_id;sensor_type;location;lat;lon;timestamp;temperature;humidity
25939;DHT22;13739;51.172;4.466;2022-12-07T00:00:43;5.70;99.90
25939;DHT22;13739;51.172;4.466;2022-12-07T00:03:08;5.60;99.90
25939;DHT22;13739;51.172;4.466;2022-12-07T00:05:34;5.60;99.90
25939;DHT22;13739;51.172;4.466;2022-12-07T00:08:00;5.60;99.90
25939;DHT22;13739;51.172;4.466;2022-12-07T00:10:25;5.80;99.90
25939;DHT22;13739;51.172;4.466;2022-12-07T00:12:51;5.70;99.90
25939;DHT22;13739;51.172;4.466;2022-12-07T00:15:17;5.80;99.90
25939;DHT22;13739;51.172;4.466;2022-12-07T00:17:42;5.60;99.90
25939;DHT22;13739;51.172;4.466;2022-12-07T00:20:08;5.60;99.90
25939;DHT22;13739;51.172;4.466;2022-12-07T00:22:34;5.70;99.90
25939;DHT22;13739;51.172;4.466;2022-12-07T00:25:00;5.50;99.90
25939;DHT22;13739;51.172;4.466;2022-12-07T00:27:27;5.40;99.90
25939;DHT22;13739;51.172;4.466;2022-12-07T00:29:53;5.40;99.90
25939;DHT22;13739;51.172;4.466;2022-12-07T00:32:18;5.40;99.90
25939;DHT22;13739;51.172;4.466;2022-12-07T00:34:44;5.40;99.90
25939;DHT22;13739;51.172;4.466;2022-12-07T00:37:10;5.40;99.90
25939;DHT22;13739;51.172;4.466;2022-12-07T00:39:37;5.30;99.90
25939;DHT22;13739;51.172;4.466;2022-12-07T00:42:03;5.30;99.90
25939;DHT22;13739;51.172;4.466;2022-12-07T00:44:44;5.30;99.90
25939;DHT22;13739;51.172;4.466;2022-12-07T00:47:13;5.30;99.90
25939;DHT22;13739;51.172;4.466;2022-12-07T00:49:38;5.30;99.90
25939;DHT22;13739;51.172;4.466;2022-12-07T00:52:04;5.30;99.90
25939;DHT22;13739;51.172;4.466;2022-12-07T00:54:30;5.40;99.90
25939;DHT22;13739;51.172;4.466;2022-12-07T00:56:55;5.30;99.90
25939;DHT22;13739;51.172;4.466;2022-12-07T00:59:21;5.30;99.90
25939;DHT22;13739;51.172;4.466;2022-12-07T01:01:47;5.60;99.90
25939;DHT22;13739;51.172;4.466;2022-12-07T01:04:12;5.60;99.90
25939;DHT22;13739;51.172;4.466;2022-12-07T01:06:38;5.60;99.90
25939;DHT22;13739;51.172;4.466;2022-12-07T01:09:04;5.60;99.90
25939;DHT22;13739;51.172;4.466;2022-12-07T01:11:31;5.60;99.90
25939;DHT22;13739;51.172;4.466;2022-12-07T01:13:59;5.70;99.90
25939;DHT22;13739;51.172;4.466;2022-12-07T01:16:28;5.80;99.90
25939;DHT22;13739;51.172;4.466;2022-12-07T01:18:55;5.60;99.90
25939;DHT22;13739;51.172;4.466;2022-12-07T01:21:28;5.50;99.90
25939;DHT22;13739;51.172;4.466;2022-12-07T01:23:57;5.40;99.90
25939;DHT22;13739;51.172;4.466;2022-12-07T01:26:24;5.40;99.90
25939;DHT22;13739;51.172;4.466;2022-12-07T01:28:49;5.40;99.90
25939;DHT22;13739;51.172;4.466;2022-12-07T01:31:19;5.40;99.90
25939;DHT22;13739;51.172;4.466;2022-12-07T01:33:46;5.40;99.90
25939;DHT22;13739;51.172;4.466;2022-12-07T01:36:21;5.40;99.90
25939;DHT22;13739;51.172;4.466;2022-12-07T01:38:49;5.40;99.90
25939;DHT22;13739;51.172;4.466;2022-12-07T01:41:17;5.30;99.90
25939;DHT22;13739;51.172;4.466;2022-12-07T01:46:28;5.20;99.90
25939;DHT22;13739;51.172;4.466;2022-12-07T01:48:55;5.20;99.90
25939;DHT22;13739;51.172;4.466;2022-12-07T01:51:20;5.00;99.90
25939;DHT22;13739;51.172;4.466;2022-12-07T01:53:46;5.20;99.90
25939;DHT22;13739;51.172;4.466;2022-12-07T01:56:24;5.20;99.90
25939;DHT22;13739;51.172;4.466;2022-12-07T01:58:51;5.20;99.90
25939;DHT22;13739;51.172;4.466;2022-12-07T02:01:20;5.30;99.90
25939;DHT22;13739;51.172;4.466;2022-12-07T02:03:48;5.00;99.90
25939;DHT22;13739;51.172;4.466;2022-12-07T02:16:59;5.10;99.90
25939;DHT22;13739;51.172;4.466;2022-12-07T02:28:33;5.40;99.90
25939;DHT22;13739;51.172;4.466;2022-12-07T02:31:10;5.20;99.90
25939;DHT22;13739;51.172;4.466;2022-12-07T02:33:57;5.50;99.90
25939;DHT22;13739;51.172;4.466;2022-12-07T02:36:30;5.60;99.90
25939;DHT22;13739;51.172;4.466;2022-12-07T02:39:05;5.50;99.90
25939;DHT22;13739;51.172;4.466;2022-12-07T02:41:37;5.60;99.90
25939;DHT22;13739;51.172;4.466;2022-12-07T02:44:08;5.70;99.90
25939;DHT22;13739;51.172;4.466;2022-12-07T02:46:42;5.50;99.90
25939;DHT22;13739;51.172;4.466;2022-12-07T02:49:08;5.50;99.90
25939;DHT22;13739;51.172;4.466;2022-12-07T02:51:39;5.50;99.90
25939;DHT22;13739;51.172;4.466;2022-12-07T02:54:14;5.80;99.90
25939;DHT22;13739;51.172;4.466;2022-12-07T03:02:09;5.70;99.90
25939;DHT22;13739;51.172;4.466;2022-12-07T03:19:05;5.60;99.90
25939;DHT22;13739;51.172;4.466;2022-12-07T03:21:39;5.60;99.90
25939;DHT22;13739;51.172;4.466;2022-12-07T03:24:18;5.50;99.90
25939;DHT22;13739;51.172;4.466;2022-12-07T03:26:49;5.60;99.90
25939;DHT22;13739;51.172;4.466;2022-12-07T03:29:44;5.60;99.90
25939;DHT22;13739;51.172;4.466;2022-12-07T03:35:09;5.20;99.90
25939;DHT22;13739;51.172;4.466;2022-12-07T03:41:11;5.20;99.90
25939;DHT22;13739;51.172;4.466;2022-12-07T03:43:37;5.10;99.90
25939;DHT22;13739;51.172;4.466;2022-12-07T03:46:20;5.10;99.90
25939;DHT22;13739;51.172;4.466;2022-12-07T03:49:24;5.10;99.90
25939;DHT22;13739;51.172;4.466;2022-12-07T03:56:58;5.20;99.90
25939;DHT22;13739;51.172;4.466;2022-12-07T03:59:25;5.20;99.90
25939;DHT22;13739;51.172;4.466;2022-12-07T04:01:57;5.40;99.90
25939;DHT22;13739;51.172;4.466;2022-12-07T04:04:27;5.50;99.90
25939;DHT22;13739;51.172;4.466;2022-12-07T04:06:53;5.30;99.90
25939;DHT22;13739;51.172;4.466;2022-12-07T04:09:18;5.20;99.90
25939;DHT22;13739;51.172;4.466;2022-12-07T04:11:44;5.10;99.90
25939;DHT22;13739;51.172;4.466;2022-12-07T04:14:10;5.00;99.90
25939;DHT22;13739;51.172;4.466;2022-12-07T04:16:54;5.20;99.90
25939;DHT22;13739;51.172;4.466;2022-12-07T04:19:24;4.90;99.90
25939;DHT22;13739;51.172;4.466;2022-12-07T04:21:50;5.20;99.90
25939;DHT22;13739;51.172;4.466;2022-12-07T04:24:16;4.80;99.90
25939;DHT22;13739;51.172;4.466;2022-12-07T04:26:43;5.00;99.90
25939;DHT22;13739;51.172;4.466;2022-12-07T04:29:10;5.10;99.90
25939;DHT22;13739;51.172;4.466;2022-12-07T04:31:36;5.10;99.90
25939;DHT22;13739;51.172;4.466;2022-12-07T04:34:03;5.10;99.90
25939;DHT22;13739;51.172;4.466;2022-12-07T04:36:29;4.80;99.90
25939;DHT22;13739;51.172;4.466;2022-12-07T04:38:55;5.00;99.90
25939;DHT22;13739;51.172;4.466;2022-12-07T04:41:22;5.10;99.90
25939;DHT22;13739;51.172;4.466;2022-12-07T04:43:56;5.20;99.90
25939;DHT22;13739;51.172;4.466;2022-12-07T04:46:23;5.20;99.90
25939;DHT22;13739;51.172;4.466;2022-12-07T04:48:50;5.20;99.90
25939;DHT22;13739;51.172;4.466;2022-12-07T04:51:24;5.30;99.90
25939;DHT22;13739;51.172;4.466;2022-12-07T04:53:50;5.40;99.90
25939;DHT22;13739;51.172;4.466;2022-12-07T04:56:17;5.40;99.90
25939;DHT22;13739;51.172;4.466;2022-12-07T04:58:44;5.40;99.90
25939;DHT22;13739;51.172;4.466;2022-12-07T05:01:10;5.50;99.90
25939;DHT22;13739;51.172;4.466;2022-12-07T05:03:37;5.60;99.90
25939;DHT22;13739;51.172;4.466;2022-12-07T05:06:04;5.60;99.90
25939;DHT22;13739;51.172;4.466;2022-12-07T05:08:29;5.70;99.90
25939;DHT22;13739;51.172;4.466;2022-12-07T05:10:55;5.70;99.90
25939;DHT22;13739;51.172;4.466;2022-12-07T05:13:21;5.60;99.90
25939;DHT22;13739;51.172;4.466;2022-12-07T05:15:47;5.60;99.90
25939;DHT22;13739;51.172;4.466;2022-12-07T05:18:14;5.50;99.90
25939;DHT22;13739;51.172;4.466;2022-12-07T05:20:40;5.60;99.90
25939;DHT22;13739;51.172;4.466;2022-12-07T05:23:06;5.60;99.90
25939;DHT22;13739;51.172;4.466;2022-12-07T05:25:31;5.40;99.90
25939;DHT22;13739;51.172;4.466;2022-12-07T05:27:57;5.60;99.90
25939;DHT22;13739;51.172;4.466;2022-12-07T05:30:24;5.50;99.90
25939;DHT22;13739;51.172;4.466;2022-12-07T05:32:50;5.60;99.90
25939;DHT22;13739;51.172;4.466;2022-12-07T05:35:16;5.70;99.90
25939;DHT22;13739;51.172;4.466;2022-12-07T05:37:42;5.70;99.90
25939;DHT22;13739;51.172;4.466;2022-12-07T05:40:09;5.60;99.90
25939;DHT22;13739;51.172;4.466;2022-12-07T05:42:34;5.60;99.90
25939;DHT22;13739;51.172;4.466;2022-12-07T05:45:00;5.60;99.90
25939;DHT22;13739;51.172;4.466;2022-12-07T05:47:26;5.80;99.90
25939;DHT22;13739;51.172;4.466;2022-12-07T05:49:52;5.80;99.90
25939;DHT22;13739;51.172;4.466;2022-12-07T05:52:17;5.50;99.90
25939;DHT22;13739;51.172;4.466;2022-12-07T05:54:43;5.60;99.90
25939;DHT22;13739;51.172;4.466;2022-12-07T05:57:08;5.60;99.90
25939;DHT22;13739;51.172;4.466;2022-12-07T05:59:34;5.60;99.90
25939;DHT22;13739;51.172;4.466;2022-12-07T06:02:02;5.60;99.90
25939;DHT22;13739;51.172;4.466;2022-12-07T06:04:31;5.70;99.90
25939;DHT22;13739;51.172;4.466;2022-12-07T06:06:57;5.90;99.90
25939;DHT22;13739;51.172;4.466;2022-12-07T06:09:25;5.90;99.90
25939;DHT22;13739;51.172;4.466;2022-12-07T06:11:52;6.00;99.90
25939;DHT22;13739;51.172;4.466;2022-12-07T06:14:36;6.00;99.90
25939;DHT22;13739;51.172;4.466;2022-12-07T06:17:02;5.80;99.90
25939;DHT22;13739;51.172;4.466;2022-12-07T06:19:28;5.90;99.90
25939;DHT22;13739;51.172;4.466;2022-12-07T06:21:54;5.90;99.90
25939;DHT22;13739;51.172;4.466;2022-12-07T06:24:19;5.90;99.90
25939;DHT22;13739;51.172;4.466;2022-12-07T06:26:45;6.00;99.90
25939;DHT22;13739;51.172;4.466;2022-12-07T06:29:12;6.20;99.90
25939;DHT22;13739;51.172;4.466;2022-12-07T06:31:38;6.00;99.90
25939;DHT22;13739;51.172;4.466;2022-12-07T06:34:06;5.90;99.90
25939;DHT22;13739;51.172;4.466;2022-12-07T06:36:32;5.80;99.90
25939;DHT22;13739;51.172;4.466;2022-12-07T06:38:59;5.90;99.90
25939;DHT22;13739;51.172;4.466;2022-12-07T06:41:25;5.90;99.90
25939;DHT22;13739;51.172;4.466;2022-12-07T06:43:51;6.00;99.90
25939;DHT22;13739;51.172;4.466;2022-12-07T06:46:17;5.90;99.90
25939;DHT22;13739;51.172;4.466;2022-12-07T06:48:43;5.90;99.90
25939;DHT22;13739;51.172;4.466;2022-12-07T06:51:09;5.80;99.90
25939;DHT22;13739;51.172;4.466;2022-12-07T06:53:35;5.70;99.90
25939;DHT22;13739;51.172;4.466;2022-12-07T06:56:01;5.70;99.90
25939;DHT22;13739;51.172;4.466;2022-12-07T06:58:27;5.60;99.90
25939;DHT22;13739;51.172;4.466;2022-12-07T07:00:53;5.40;99.90
25939;DHT22;13739;51.172;4.466;2022-12-07T07:03:19;5.50;99.90
25939;DHT22;13739;51.172;4.466;2022-12-07T07:05:45;5.40;99.90
25939;DHT22;13739;51.172;4.466;2022-12-07T07:08:11;5.30;99.90
25939;DHT22;13739;51.172;4.466;2022-12-07T07:10:37;5.20;99.90
25939;DHT22;13739;51.172;4.466;2022-12-07T07:13:03;5.20;99.90
25939;DHT22;13739;51.172;4.466;2022-12-07T07:15:29;5.10;99.90
25939;DHT22;13739;51.172;4.466;2022-12-07T07:17:55;5.10;99.90
25939;DHT22;13739;51.172;4.466;2022-12-07T07:20:20;5.10;99.90
25939;DHT22;13739;51.172;4.466;2022-12-07T07:22:46;4.90;99.90
25939;DHT22;13739;51.172;4.466;2022-12-07T07:25:12;4.90;99.90
25939;DHT22;13739;51.172;4.466;2022-12-07T07:27:37;5.00;99.90
25939;DHT22;13739;51.172;4.466;2022-12-07T07:30:04;4.80;99.90
25939;DHT22;13739;51.172;4.466;2022-12-07T07:32:29;4.80;99.90
25939;DHT22;13739;51.172;4.466;2022-12-07T07:34:55;5.10;99.90
25939;DHT22;13739;51.172;4.466;2022-12-07T07:37:21;5.00;99.90
25939;DHT22;13739;51.172;4.466;2022-12-07T07:39:46;4.70;99.90
25939;DHT22;13739;51.172;4.466;2022-12-07T07:42:12;4.70;99.90
25939;DHT22;13739;51.172;4.466;2022-12-07T07:44:38;4.80;99.90
25939;DHT22;13739;51.172;4.466;2022-12-07T07:47:03;4.60;99.90
25939;DHT22;13739;51.172;4.466;2022-12-07T07:49:29;4.60;99.90
25939;DHT22;13739;51.172;4.466;2022-12-07T07:51:55;4.70;99.90
25939;DHT22;13739;51.172;4.466;2022-12-07T07:54:20;4.60;99.90
25939;DHT22;13739;51.172;4.466;2022-12-07T07:56:46;4.60;99.90
25939;DHT22;13739;51.172;4.466;2022-12-07T07:59:11;4.70;99.90
25939;DHT22;13739;51.172;4.466;2022-12-07T08:01:37;4.80;99.90
25939;DHT22;13739;51.172;4.466;2022-12-07T08:04:03;4.90;99.90
25939;DHT22;13739;51.172;4.466;2022-12-07T08:06:28;4.80;99.90
25939;DHT22;13739;51.172;4.466;2022-12-07T08:08:54;4.90;99.90
25939;DHT22;13739;51.172;4.466;2022-12-07T08:11:20;4.90;99.90
25939;DHT22;13739;51.172;4.466;2022-12-07T08:13:46;5.00;99.90
25939;DHT22;13739;51.172;4.466;2022-12-07T08:16:12;5.00;99.90
25939;DHT22;13739;51.172;4.466;2022-12-07T08:18:43;5.20;99.90
25939;DHT22;13739;51.172;4.466;2022-12-07T08:21:15;5.30;99.90
25939;DHT22;13739;51.172;4.466;2022-12-07T08:23:42;5.50;99.90
25939;DHT22;13739;51.172;4.466;2022-12-07T08:26:13;5.40;99.90
25939;DHT22;13739;51.172;4.466;2022-12-07T08:28:39;5.40;99.90
25939;DHT22;13739;51.172;4.466;2022-12-07T08:31:10;5.40;99.90
25939;DHT22;13739;51.172;4.466;2022-12-07T08:33:37;5.20;99.90
25939;DHT22;13739;51.172;4.466;2022-12-07T08:36:11;5.40;99.90
25939;DHT22;13739;51.172;4.466;2022-12-07T08:38:40;5.10;99.90
25939;DHT22;13739;51.172;4.466;2022-12-07T08:41:08;5.30;99.90
25939;DHT22;13739;51.172;4.466;2022-12-07T08:43:35;5.20;99.90
25939;DHT22;13739;51.172;4.466;2022-12-07T08:46:08;5.30;99.90
25939;DHT22;13739;51.172;4.466;2022-12-07T08:48:39;5.40;99.90
25939;DHT22;13739;51.172;4.466;2022-12-07T08:51:07;5.20;99.90
25939;DHT22;13739;51.172;4.466;2022-12-07T08:53:34;5.50;99.90
25939;DHT22;13739;51.172;4.466;2022-12-07T08:56:02;5.50;99.90
25939;DHT22;13739;51.172;4.466;2022-12-07T08:58:30;5.50;99.90
25939;DHT22;13739;51.172;4.466;2022-12-07T09:00:56;5.60;99.90
25939;DHT22;13739;51.172;4.466;2022-12-07T09:03:25;5.60;99.90
25939;DHT22;13739;51.172;4.466;2022-12-07T09:05:52;5.40;99.90
25939;DHT22;13739;51.172;4.466;2022-12-07T09:08:19;5.60;99.90
25939;DHT22;13739;51.172;4.466;2022-12-07T09:10:45;5.70;99.90
25939;DHT22;13739;51.172;4.466;2022-12-07T09:13:11;5.80;99.90
25939;DHT22;13739;51.172;4.466;2022-12-07T09:15:37;6.10;99.90
25939;DHT22;13739;51.172;4.466;2022-12-07T09:18:03;6.00;99.90
25939;DHT22;13739;51.172;4.466;2022-12-07T09:20:30;6.10;99.90
25939;DHT22;13739;51.172;4.466;2022-12-07T09:22:59;6.10;99.90
25939;DHT22;13739;51.172;4.466;2022-12-07T09:25:28;6.00;99.90
25939;DHT22;13739;51.172;4.466;2022-12-07T09:27:58;6.10;99.90
25939;DHT22;13739;51.172;4.466;2022-12-07T09:30:26;6.00;99.90
25939;DHT22;13739;51.172;4.466;2022-12-07T09:32:56;5.90;99.90
25939;DHT22;13739;51.172;4.466;2022-12-07T09:35:23;5.90;99.90
25939;DHT22;13739;51.172;4.466;2022-12-07T09:37:49;5.80;99.90
25939;DHT22;13739;51.172;4.466;2022-12-07T09:40:16;5.90;99.90
25939;DHT22;13739;51.172;4.466;2022-12-07T09:42:47;6.10;99.90
25939;DHT22;13739;51.172;4.466;2022-12-07T09:45:26;6.30;99.90
25939;DHT22;13739;51.172;4.466;2022-12-07T09:47:55;6.50;99.90
25939;DHT22;13739;51.172;4.466;2022-12-07T09:50:27;6.80;99.90
25939;DHT22;13739;51.172;4.466;2022-12-07T09:53:12;6.80;99.90
25939;DHT22;13739;51.172;4.466;2022-12-07T09:55:41;7.00;99.90
25939;DHT22;13739;51.172;4.466;2022-12-07T09:58:17;7.00;99.90
25939;DHT22;13739;51.172;4.466;2022-12-07T10:00:45;6.90;99.90
25939;DHT22;13739;51.172;4.466;2022-12-07T10:03:13;6.80;99.90
25939;DHT22;13739;51.172;4.466;2022-12-07T10:05:43;6.60;99.90
25939;DHT22;13739;51.172;4.466;2022-12-07T10:08:13;6.90;99.90
25939;DHT22;13739;51.172;4.466;2022-12-07T10:10:41;6.50;99.90
25939;DHT22;13739;51.172;4.466;2022-12-07T10:13:12;6.50;99.90
25939;DHT22;13739;51.172;4.466;2022-12-07T10:15:54;6.50;99.90
25939;DHT22;13739;51.172;4.466;2022-12-07T10:18:28;6.50;99.90
25939;DHT22;13739;51.172;4.466;2022-12-07T10:21:14;6.70;99.90
25939;DHT22;13739;51.172;4.466;2022-12-07T10:24:02;6.80;99.90
25939;DHT22;13739;51.172;4.466;2022-12-07T10:26:35;7.00;99.90
25939;DHT22;13739;51.172;4.466;2022-12-07T10:29:23;7.10;99.90
25939;DHT22;13739;51.172;4.466;2022-12-07T10:34:45;7.40;99.90
25939;DHT22;13739;51.172;4.466;2022-12-07T10:39:46;7.20;99.90
25939;DHT22;13739;51.172;4.466;2022-12-07T10:42:26;7.30;99.90
25939;DHT22;13739;51.172;4.466;2022-12-07T10:45:17;7.20;99.90
25939;DHT22;13739;51.172;4.466;2022-12-07T10:48:05;6.90;99.90
25939;DHT22;13739;51.172;4.466;2022-12-07T10:59:22;7.50;99.90
25939;DHT22;13739;51.172;4.466;2022-12-07T11:02:06;7.30;99.90
25939;DHT22;13739;51.172;4.466;2022-12-07T11:04:50;7.50;99.90
25939;DHT22;13739;51.172;4.466;2022-12-07T11:07:34;7.40;99.90
25939;DHT22;13739;51.172;4.466;2022-12-07T11:10:19;7.30;99.90
25939;DHT22;13739;51.172;4.466;2022-12-07T11:21:17;7.40;99.90
25939;DHT22;13739;51.172;4.466;2022-12-07T11:24:14;7.60;99.90
25939;DHT22;13739;51.172;4.466;2022-12-07T11:38:19;7.70;99.90
25939;DHT22;13739;51.172;4.466;2022-12-07T11:40:49;7.70;99.90
25939;DHT22;13739;51.172;4.466;2022-12-07T11:43:27;7.70;99.90
25939;DHT22;13739;51.172;4.466;2022-12-07T11:46:06;7.60;99.90
25939;DHT22;13739;51.172;4.466;2022-12-07T11:48:39;7.60;99.90
25939;DHT22;13739;51.172;4.466;2022-12-07T11:51:09;7.70;99.90
25939;DHT22;13739;51.172;4.466;2022-12-07T11:53:46;7.80;99.90
25939;DHT22;13739;51.172;4.466;2022-12-07T11:56:21;7.80;99.90
25939;DHT22;13739;51.172;4.466;2022-12-07T11:58:59;7.90;99.90
25939;DHT22;13739;51.172;4.466;2022-12-07T12:01:36;7.90;99.90
25939;DHT22;13739;51.172;4.466;2022-12-07T12:05:05;7.50;99.90
25939;DHT22;13739;51.172;4.466;2022-12-07T12:07:03;7.50;99.90
25939;DHT22;13739;51.172;4.466;2022-12-07T12:15:09;7.50;99.90
25939;DHT22;13739;51.172;4.466;2022-12-07T12:20:40;7.70;99.90
25939;DHT22;13739;51.172;4.466;2022-12-07T12:23:28;7.80;99.90
25939;DHT22;13739;51.172;4.466;2022-12-07T12:26:01;8.10;99.90
25939;DHT22;13739;51.172;4.466;2022-12-07T12:28:42;8.00;99.90
25939;DHT22;13739;51.172;4.466;2022-12-07T12:33:54;7.80;99.90
25939;DHT22;13739;51.172;4.466;2022-12-07T12:39:15;7.60;99.90
25939;DHT22;13739;51.172;4.466;2022-12-07T12:46:58;7.20;99.90
25939;DHT22;13739;51.172;4.466;2022-12-07T12:51:57;7.00;99.90
25939;DHT22;13739;51.172;4.466;2022-12-07T12:54:31;7.30;99.90
25939;DHT22;13739;51.172;4.466;2022-12-07T13:05:00;7.70;99.90
25939;DHT22;13739;51.172;4.466;2022-12-07T13:20:51;7.90;99.90
25939;DHT22;13739;51.172;4.466;2022-12-07T13:29:17;7.80;99.90
25939;DHT22;13739;51.172;4.466;2022-12-07T13:31:49;7.80;99.90
25939;DHT22;13739;51.172;4.466;2022-12-07T13:34:35;7.70;99.90
25939;DHT22;13739;51.172;4.466;2022-12-07T13:39:55;7.70;99.90
25939;DHT22;13739;51.172;4.466;2022-12-07T13:42:32;7.40;99.90
25939;DHT22;13739;51.172;4.466;2022-12-07T13:45:00;7.30;99.90
25939;DHT22;13739;51.172;4.466;2022-12-07T13:47:47;7.30;99.90
25939;DHT22;13739;51.172;4.466;2022-12-07T13:50:29;7.30;99.90
25939;DHT22;13739;51.172;4.466;2022-12-07T13:52:56;7.40;99.90
25939;DHT22;13739;51.172;4.466;2022-12-07T13:55:22;7.40;99.90
25939;DHT22;13739;51.172;4.466;2022-12-07T13:57:52;7.30;99.90
25939;DHT22;13739;51.172;4.466;2022-12-07T14:00:21;7.20;99.90
25939;DHT22;13739;51.172;4.466;2022-12-07T14:03:02;7.40;99.90
25939;DHT22;13739;51.172;4.466;2022-12-07T14:05:30;7.30;99.90
25939;DHT22;13739;51.172;4.466;2022-12-07T14:08:02;7.10;99.90
25939;DHT22;13739;51.172;4.466;2022-12-07T14:10:33;7.00;99.90
25939;DHT22;13739;51.172;4.466;2022-12-07T14:13:01;7.00;99.90
25939;DHT22;13739;51.172;4.466;2022-12-07T14:15:32;6.90;99.90
25939;DHT22;13739;51.172;4.466;2022-12-07T14:17:59;7.00;99.90
25939;DHT22;13739;51.172;4.466;2022-12-07T14:20:39;6.90;99.90
25939;DHT22;13739;51.172;4.466;2022-12-07T14:23:22;7.00;99.90
25939;DHT22;13739;51.172;4.466;2022-12-07T14:25:51;6.90;99.90
25939;DHT22;13739;51.172;4.466;2022-12-07T14:28:34;6.90;99.90
25939;DHT22;13739;51.172;4.466;2022-12-07T14:31:00;6.80;99.90
25939;DHT22;13739;51.172;4.466;2022-12-07T14:33:27;6.90;99.90
25939;DHT22;13739;51.172;4.466;2022-12-07T14:35:53;6.90;99.90
25939;DHT22;13739;51.172;4.466;2022-12-07T14:38:23;6.90;99.90
25939;DHT22;13739;51.172;4.466;2022-12-07T14:40:53;7.00;99.90
25939;DHT22;13739;51.172;4.466;2022-12-07T14:43:20;7.00;99.90
25939;DHT22;13739;51.172;4.466;2022-12-07T14:45:46;6.90;99.90
25939;DHT22;13739;51.172;4.466;2022-12-07T14:48:13;6.80;99.90
25939;DHT22;13739;51.172;4.466;2022-12-07T14:50:43;6.80;99.90
25939;DHT22;13739;51.172;4.466;2022-12-07T14:53:12;6.70;99.90
25939;DHT22;13739;51.172;4.466;2022-12-07T14:55:39;6.80;99.90
25939;DHT22;13739;51.172;4.466;2022-12-07T14:58:05;6.70;99.90
25939;DHT22;13739;51.172;4.466;2022-12-07T15:00:30;6.80;99.90
25939;DHT22;13739;51.172;4.466;2022-12-07T15:02:57;6.80;99.90
25939;DHT22;13739;51.172;4.466;2022-12-07T15:05:23;6.60;99.90
25939;DHT22;13739;51.172;4.466;2022-12-07T15:07:49;6.70;99.90
25939;DHT22;13739;51.172;4.466;2022-12-07T15:10:23;6.50;99.90
25939;DHT22;13739;51.172;4.466;2022-12-07T15:12:50;6.50;99.90
25939;DHT22;13739;51.172;4.466;2022-12-07T15:15:16;6.50;99.90
25939;DHT22;13739;51.172;4.466;2022-12-07T15:17:42;6.40;99.90
25939;DHT22;13739;51.172;4.466;2022-12-07T15:20:14;6.30;99.90
25939;DHT22;13739;51.172;4.466;2022-12-07T15:22:41;6.20;99.90
25939;DHT22;13739;51.172;4.466;2022-12-07T15:25:08;6.30;99.90
25939;DHT22;13739;51.172;4.466;2022-12-07T15:27:34;6.30;99.90
25939;DHT22;13739;51.172;4.466;2022-12-07T15:30:00;6.10;99.90
25939;DHT22;13739;51.172;4.466;2022-12-07T15:32:25;6.10;99.90
25939;DHT22;13739;51.172;4.466;2022-12-07T15:34:51;6.10;99.90
25939;DHT22;13739;51.172;4.466;2022-12-07T15:37:16;6.20;99.90
25939;DHT22;13739;51.172;4.466;2022-12-07T15:39:42;6.30;99.90
25939;DHT22;13739;51.172;4.466;2022-12-07T15:42:08;6.20;99.90
25939;DHT22;13739;51.172;4.466;2022-12-07T15:44:33;6.40;99.90
25939;DHT22;13739;51.172;4.466;2022-12-07T15:47:17;6.40;99.90
25939;DHT22;13739;51.172;4.466;2022-12-07T15:49:43;6.30;99.90
25939;DHT22;13739;51.172;4.466;2022-12-07T15:52:09;6.50;99.90
25939;DHT22;13739;51.172;4.466;2022-12-07T15:54:35;6.30;99.90
25939;DHT22;13739;51.172;4.466;2022-12-07T15:57:01;6.40;99.90
25939;DHT22;13739;51.172;4.466;2022-12-07T15:59:27;6.20;99.90
25939;DHT22;13739;51.172;4.466;2022-12-07T16:01:53;6.20;99.90
25939;DHT22;13739;51.172;4.466;2022-12-07T16:04:19;6.30;99.90
25939;DHT22;13739;51.172;4.466;2022-12-07T16:06:45;6.30;99.90
25939;DHT22;13739;51.172;4.466;2022-12-07T16:09:11;6.30;99.90
25939;DHT22;13739;51.172;4.466;2022-12-07T16:11:38;6.50;99.90
25939;DHT22;13739;51.172;4.466;2022-12-07T16:14:03;6.50;99.90
25939;DHT22;13739;51.172;4.466;2022-12-07T16:16:29;6.50;99.90
25939;DHT22;13739;51.172;4.466;2022-12-07T16:18:55;6.50;99.90
25939;DHT22;13739;51.172;4.466;2022-12-07T16:21:21;6.50;99.90
25939;DHT22;13739;51.172;4.466;2022-12-07T16:23:47;6.70;99.90
25939;DHT22;13739;51.172;4.466;2022-12-07T16:26:15;6.80;99.90
25939;DHT22;13739;51.172;4.466;2022-12-07T16:28:42;6.80;99.90
25939;DHT22;13739;51.172;4.466;2022-12-07T16:31:11;6.70;99.90
25939;DHT22;13739;51.172;4.466;2022-12-07T16:33:38;6.80;99.90
25939;DHT22;13739;51.172;4.466;2022-12-07T16:36:05;6.60;99.90
25939;DHT22;13739;51.172;4.466;2022-12-07T16:38:31;6.70;99.90
25939;DHT22;13739;51.172;4.466;2022-12-07T16:40:57;6.60;99.90
25939;DHT22;13739;51.172;4.466;2022-12-07T16:43:23;6.80;99.90
25939;DHT22;13739;51.172;4.466;2022-12-07T16:45:49;6.80;99.90
25939;DHT22;13739;51.172;4.466;2022-12-07T16:48:16;6.80;99.90
25939;DHT22;13739;51.172;4.466;2022-12-07T16:50:42;6.60;99.90
25939;DHT22;13739;51.172;4.466;2022-12-07T16:53:12;6.60;99.90
25939;DHT22;13739;51.172;4.466;2022-12-07T16:55:39;6.60;99.90
25939;DHT22;13739;51.172;4.466;2022-12-07T16:58:06;6.70;99.90
25939;DHT22;13739;51.172;4.466;2022-12-07T17:00:31;6.50;99.90
25939;DHT22;13739;51.172;4.466;2022-12-07T17:02:57;6.50;99.90
25939;DHT22;13739;51.172;4.466;2022-12-07T17:05:23;6.50;99.90
25939;DHT22;13739;51.172;4.466;2022-12-07T17:07:50;6.50;99.90
25939;DHT22;13739;51.172;4.466;2022-12-07T17:10:15;6.50;99.90
25939;DHT22;13739;51.172;4.466;2022-12-07T17:12:41;6.50;99.90
25939;DHT22;13739;51.172;4.466;2022-12-07T17:15:08;6.60;99.90
25939;DHT22;13739;51.172;4.466;2022-12-07T17:17:51;6.60;99.90
25939;DHT22;13739;51.172;4.466;2022-12-07T17:20:18;6.50;99.90
25939;DHT22;13739;51.172;4.466;2022-12-07T17:22:44;6.50;99.90
25939;DHT22;13739;51.172;4.466;2022-12-07T17:25:09;6.70;99.90
25939;DHT22;13739;51.172;4.466;2022-12-07T17:27:36;6.60;99.90
25939;DHT22;13739;51.172;4.466;2022-12-07T17:30:04;6.50;99.90
25939;DHT22;13739;51.172;4.466;2022-12-07T17:32:30;6.30;99.90
25939;DHT22;13739;51.172;4.466;2022-12-07T17:34:56;6.40;99.90
25939;DHT22;13739;51.172;4.466;2022-12-07T17:37:21;6.20;99.90
25939;DHT22;13739;51.172;4.466;2022-12-07T17:39:47;6.30;99.90
25939;DHT22;13739;51.172;4.466;2022-12-07T17:42:13;6.20;99.90
25939;DHT22;13739;51.172;4.466;2022-12-07T17:44:57;6.20;99.90
25939;DHT22;13739;51.172;4.466;2022-12-07T17:47:23;6.20;99.90
25939;DHT22;13739;51.172;4.466;2022-12-07T17:49:49;6.30;99.90
25939;DHT22;13739;51.172;4.466;2022-12-07T17:52:15;6.30;99.90
25939;DHT22;13739;51.172;4.466;2022-12-07T17:54:59;6.30;99.90
25939;DHT22;13739;51.172;4.466;2022-12-07T17:57:25;6.20;99.90
25939;DHT22;13739;51.172;4.466;2022-12-07T17:59:50;6.20;99.90
25939;DHT22;13739;51.172;4.466;2022-12-07T18:02:17;6.20;99.90
25939;DHT22;13739;51.172;4.466;2022-12-07T18:04:43;6.20;99.90
25939;DHT22;13739;51.172;4.466;2022-12-07T18:07:10;6.20;99.90
25939;DHT22;13739;51.172;4.466;2022-12-07T18:09:36;6.10;99.90
25939;DHT22;13739;51.172;4.466;2022-12-07T18:12:02;6.10;99.90
25939;DHT22;13739;51.172;4.466;2022-12-07T18:14:27;6.20;99.90
25939;DHT22;13739;51.172;4.466;2022-12-07T18:16:55;6.30;99.90